Time;durP1;ratioP1;P1;durP2;ratioP2;P2;SDS_P1;SDS_P2;PMS_P1;PMS_P2;Temp;Humidity;BMP_temperature;BMP_pressure;BME280_temperature;BME280_humidity;BME280_pressure;Samples;Min_cycle;Max_cycle;Signal;HPM_P1;HPM_P2
2022/03/02 00:01:49;;;;;;;;;;;9.30;42.30;;;;;;5052900;28;19923;-86
2022/03/02 00:04:15;;;;;;;;;;;9.30;42.30;;;;;;5074618;28;19961;-85
2022/03/02 00:06:40;;;;;;;;;;;9.30;42.30;;;;;;5057151;28;20352;-86
2022/03/02 00:09:06;;;;;;;;;;;9.30;42.40;;;;;;5057310;28;20272;-85
2022/03/02 00:11:31;;;;;;;;;;;9.30;42.40;;;;;;5074852;28;19923;-86
2022/03/02 00:14:00;;;;;;;;;;;9.30;42.40;;;;;;5075134;28;20336;-85
2022/03/02 00:16:25;;;;;;;;;;;9.30;42.50;;;;;;5074369;28;19923;-86
2022/03/02 00:18:51;;;;;;;;;;;9.30;42.50;;;;;;5073991;28;20368;-86
2022/03/02 00:21:18;;;;;;;;;;;9.20;42.50;;;;;;5074647;28;20311;-87
2022/03/02 00:23:43;;;;;;;;;;;9.30;42.50;;;;;;5074152;28;19970;-85
2022/03/02 00:26:09;;;;;;;;;;;9.20;42.50;;;;;;5056455;28;19916;-86
2022/03/02 00:28:34;;;;;;;;;;;9.30;42.50;;;;;;5074779;28;20003;-86
2022/03/02 00:31:00;;;;;;;;;;;9.20;42.60;;;;;;5075121;28;20318;-86
2022/03/02 00:33:25;;;;;;;;;;;9.20;42.60;;;;;;5074323;28;20332;-86
2022/03/02 00:35:51;;;;;;;;;;;9.20;42.60;;;;;;5055829;28;19923;-86
2022/03/02 00:38:16;;;;;;;;;;;9.20;42.70;;;;;;5056387;28;19917;-86
2022/03/02 00:40:42;;;;;;;;;;;9.10;42.70;;;;;;5074427;28;19923;-85
2022/03/02 00:43:08;;;;;;;;;;;9.00;42.80;;;;;;5055676;28;19913;-85
2022/03/02 00:45:34;;;;;;;;;;;9.00;42.90;;;;;;5073580;28;19998;-85
2022/03/02 00:48:00;;;;;;;;;;;9.00;42.90;;;;;;5055892;28;20399;-85
2022/03/02 00:50:26;;;;;;;;;;;9.00;43.00;;;;;;5056280;28;19922;-86
2022/03/02 00:52:51;;;;;;;;;;;9.00;43.00;;;;;;5056767;28;20006;-85
2022/03/02 00:55:17;;;;;;;;;;;8.90;43.10;;;;;;5073828;28;20382;-84
2022/03/02 00:57:43;;;;;;;;;;;8.90;43.20;;;;;;5055205;28;19966;-85
2022/03/02 01:00:09;;;;;;;;;;;8.80;43.30;;;;;;5061444;28;19908;-85
2022/03/02 01:02:34;;;;;;;;;;;8.80;43.30;;;;;;5043543;28;19921;-85
2022/03/02 01:05:00;;;;;;;;;;;8.80;43.40;;;;;;5078245;28;19971;-85
2022/03/02 01:07:25;;;;;;;;;;;8.80;43.40;;;;;;5060032;28;19920;-86
2022/03/02 01:09:51;;;;;;;;;;;8.80;43.60;;;;;;5078096;28;19912;-85
2022/03/02 01:12:17;;;;;;;;;;;8.70;43.60;;;;;;5060647;28;19923;-85
2022/03/02 01:14:42;;;;;;;;;;;8.70;43.80;;;;;;5059923;28;19912;-86
2022/03/02 01:17:08;;;;;;;;;;;8.70;43.80;;;;;;5077904;28;20340;-86
2022/03/02 01:19:33;;;;;;;;;;;8.70;43.80;;;;;;5060808;28;19931;-86
2022/03/02 01:21:59;;;;;;;;;;;8.70;43.90;;;;;;5077741;28;20011;-85
2022/03/02 01:24:25;;;;;;;;;;;8.70;43.90;;;;;;5077023;28;20337;-86
2022/03/02 01:26:50;;;;;;;;;;;8.70;44.00;;;;;;5043267;28;20011;-85
2022/03/02 01:29:16;;;;;;;;;;;8.70;44.00;;;;;;5081497;28;19922;-85
2022/03/02 01:31:42;;;;;;;;;;;8.70;44.00;;;;;;5063288;28;19966;-85
2022/03/02 01:34:08;;;;;;;;;;;8.80;44.00;;;;;;5080981;28;19925;-86
2022/03/02 01:36:33;;;;;;;;;;;8.80;44.00;;;;;;5062591;28;19909;-85
2022/03/02 01:38:59;;;;;;;;;;;8.80;44.00;;;;;;5062434;28;19960;-85
2022/03/02 01:41:25;;;;;;;;;;;8.90;44.00;;;;;;5080635;28;19908;-86
2022/03/02 01:43:51;;;;;;;;;;;8.90;44.00;;;;;;5062955;28;19920;-86
2022/03/02 01:46:17;;;;;;;;;;;8.90;44.00;;;;;;5061800;28;19979;-86
2022/03/02 01:48:43;;;;;;;;;;;8.90;44.10;;;;;;5083156;28;19912;-86
2022/03/02 01:51:08;;;;;;;;;;;9.00;44.10;;;;;;5063628;28;19923;-84
2022/03/02 01:53:34;;;;;;;;;;;9.00;44.10;;;;;;5044139;28;20328;-87
2022/03/02 01:56:00;;;;;;;;;;;9.00;44.10;;;;;;5079463;28;20268;-86
2022/03/02 01:58:26;;;;;;;;;;;9.00;44.20;;;;;;5063024;28;19917;-85
2022/03/02 02:00:52;;;;;;;;;;;9.00;44.10;;;;;;5062931;28;19912;-84
2022/03/02 02:03:18;;;;;;;;;;;9.10;44.10;;;;;;5044831;28;20015;-86
2022/03/02 02:05:44;;;;;;;;;;;9.10;44.10;;;;;;5080469;28;19954;-86
2022/03/02 02:08:10;;;;;;;;;;;9.10;44.10;;;;;;5080535;28;19939;-86
2022/03/02 02:10:36;;;;;;;;;;;9.10;44.00;;;;;;5080458;28;19912;-86
2022/03/02 02:13:02;;;;;;;;;;;9.20;44.00;;;;;;5062157;28;19961;-85
2022/03/02 02:15:28;;;;;;;;;;;9.20;44.00;;;;;;5061930;28;19912;-85
2022/03/02 02:17:53;;;;;;;;;;;9.20;44.00;;;;;;5062642;28;19927;-85
2022/03/02 02:20:19;;;;;;;;;;;9.20;44.00;;;;;;5080468;28;19943;-87
2022/03/02 02:22:46;;;;;;;;;;;9.20;44.00;;;;;;5061679;28;19920;-86
2022/03/02 02:25:12;;;;;;;;;;;9.30;44.00;;;;;;5061984;28;19912;-86
2022/03/02 02:27:39;;;;;;;;;;;9.20;43.90;;;;;;5080620;28;19942;-86
2022/03/02 02:30:05;;;;;;;;;;;9.20;43.90;;;;;;5080036;28;20012;-85
2022/03/02 02:32:32;;;;;;;;;;;9.20;43.90;;;;;;5063678;28;19924;-86
2022/03/02 02:34:58;;;;;;;;;;;9.20;44.00;;;;;;5062300;28;20357;-85
2022/03/02 02:37:26;;;;;;;;;;;9.20;43.90;;;;;;5061835;28;19916;-85
2022/03/02 02:39:56;;;;;;;;;;;9.30;44.00;;;;;;5061701;28;19999;-86
2022/03/02 02:42:22;;;;;;;;;;;9.30;43.90;;;;;;5062122;28;19920;-86
2022/03/02 02:44:48;;;;;;;;;;;9.30;44.00;;;;;;5061738;28;20368;-86
2022/03/02 02:47:13;;;;;;;;;;;9.30;44.00;;;;;;5061747;28;20015;-85
2022/03/02 02:49:38;;;;;;;;;;;9.30;43.90;;;;;;5062126;28;19921;-84
2022/03/02 02:52:04;;;;;;;;;;;9.30;43.90;;;;;;5061541;28;19912;-85
2022/03/02 02:54:29;;;;;;;;;;;9.30;43.90;;;;;;5061675;28;19916;-86
2022/03/02 02:56:55;;;;;;;;;;;9.30;43.90;;;;;;5061451;28;19920;-86
2022/03/02 02:59:21;;;;;;;;;;;9.30;43.90;;;;;;5061040;28;19916;-86
2022/03/02 03:01:46;;;;;;;;;;;9.30;43.90;;;;;;5078402;28;19916;-85
2022/03/02 03:04:12;;;;;;;;;;;9.30;43.90;;;;;;5061620;28;19917;-84
2022/03/02 03:06:38;;;;;;;;;;;9.30;44.00;;;;;;5079064;28;19909;-85
2022/03/02 03:09:03;;;;;;;;;;;9.30;44.00;;;;;;5061756;28;19923;-86
2022/03/02 03:11:29;;;;;;;;;;;9.30;44.00;;;;;;5062126;28;20284;-85
2022/03/02 03:13:58;;;;;;;;;;;9.30;43.90;;;;;;5079595;28;19923;-86
2022/03/02 03:16:24;;;;;;;;;;;9.30;44.00;;;;;;5061766;28;20276;-85
2022/03/02 03:18:49;;;;;;;;;;;9.30;44.00;;;;;;5079396;28;19924;-85
2022/03/02 03:21:14;;;;;;;;;;;9.30;44.00;;;;;;5079776;28;20428;-84
2022/03/02 03:23:40;;;;;;;;;;;9.30;44.00;;;;;;5057948;28;20331;-86
2022/03/02 03:26:05;;;;;;;;;;;9.30;44.10;;;;;;5068321;28;19908;-85
2022/03/02 03:28:31;;;;;;;;;;;9.30;44.10;;;;;;5079072;28;20325;-85
2022/03/02 03:30:56;;;;;;;;;;;9.30;44.20;;;;;;5079182;28;19943;-86
2022/03/02 03:33:25;;;;;;;;;;;9.30;44.20;;;;;;5077038;28;19936;-84
2022/03/02 03:35:50;;;;;;;;;;;9.30;44.30;;;;;;5079587;28;19923;-85
2022/03/02 03:38:16;;;;;;;;;;;9.30;44.40;;;;;;5077435;28;20007;-85
2022/03/02 03:40:41;;;;;;;;;;;9.30;44.40;;;;;;5076599;28;19916;-86
2022/03/02 03:43:06;;;;;;;;;;;9.30;44.40;;;;;;5079104;28;19947;-85
2022/03/02 03:45:32;;;;;;;;;;;9.30;44.40;;;;;;5060414;28;20388;-86
2022/03/02 03:47:58;;;;;;;;;;;9.30;44.40;;;;;;5060235;28;20305;-85
2022/03/02 03:50:24;;;;;;;;;;;9.30;44.40;;;;;;5044315;28;19920;-85
2022/03/02 03:52:53;;;;;;;;;;;9.30;44.40;;;;;;5062572;28;19926;-85
2022/03/02 03:55:19;;;;;;;;;;;9.40;44.40;;;;;;5060859;28;19916;-85
2022/03/02 03:57:44;;;;;;;;;;;9.30;44.50;;;;;;5042936;28;19912;-85
2022/03/02 04:00:11;;;;;;;;;;;9.30;44.50;;;;;;5074277;28;19978;-86
2022/03/02 04:02:37;;;;;;;;;;;9.30;44.50;;;;;;5055786;28;19959;-86
2022/03/02 04:05:03;;;;;;;;;;;9.30;44.60;;;;;;5055715;28;19920;-86
2022/03/02 04:07:29;;;;;;;;;;;9.30;44.50;;;;;;5055719;28;19974;-86
2022/03/02 04:09:54;;;;;;;;;;;9.30;44.50;;;;;;5073993;28;20352;-85
2022/03/02 04:12:20;;;;;;;;;;;9.30;44.50;;;;;;5074857;28;19917;-85
2022/03/02 04:14:45;;;;;;;;;;;9.20;44.50;;;;;;5074033;28;19916;-86
2022/03/02 04:17:11;;;;;;;;;;;9.10;44.50;;;;;;5055308;28;19928;-85
2022/03/02 04:19:37;;;;;;;;;;;9.00;44.50;;;;;;5056070;28;19971;-86
2022/03/02 04:22:02;;;;;;;;;;;8.90;44.60;;;;;;5055802;28;19924;-86
2022/03/02 04:24:28;;;;;;;;;;;8.80;44.70;;;;;;5074432;28;19970;-86
2022/03/02 04:26:53;;;;;;;;;;;8.70;44.70;;;;;;5056513;28;19940;-86
2022/03/02 04:29:19;;;;;;;;;;;8.60;44.80;;;;;;5074442;28;19915;-86
2022/03/02 04:31:44;;;;;;;;;;;8.50;44.90;;;;;;5073341;28;19999;-85
2022/03/02 04:34:10;;;;;;;;;;;8.40;45.00;;;;;;5074236;28;19913;-85
2022/03/02 04:36:35;;;;;;;;;;;8.30;45.10;;;;;;5055358;28;20373;-86
2022/03/02 04:39:01;;;;;;;;;;;8.30;45.30;;;;;;5055723;28;19917;-86
2022/03/02 04:41:26;;;;;;;;;;;8.30;45.40;;;;;;5073816;28;19917;-85
2022/03/02 04:43:52;;;;;;;;;;;8.30;45.40;;;;;;5055749;28;20398;-86
2022/03/02 04:46:18;;;;;;;;;;;8.30;45.50;;;;;;5073958;28;19995;-85
2022/03/02 04:48:43;;;;;;;;;;;8.30;45.50;;;;;;5073659;28;19912;-85
2022/03/02 04:51:09;;;;;;;;;;;8.30;45.60;;;;;;5073923;28;20355;-85
2022/03/02 04:53:34;;;;;;;;;;;8.30;45.70;;;;;;5055256;28;19954;-86
2022/03/02 04:56:00;;;;;;;;;;;8.30;45.70;;;;;;5055107;28;19970;-85
2022/03/02 04:58:25;;;;;;;;;;;8.30;45.70;;;;;;5073832;28;19908;-86
2022/03/02 05:00:51;;;;;;;;;;;8.40;45.80;;;;;;5073967;28;19924;-86
2022/03/02 05:03:16;;;;;;;;;;;8.30;45.80;;;;;;5056885;28;19939;-86
2022/03/02 05:05:42;;;;;;;;;;;8.30;45.80;;;;;;5059775;28;19916;-86
2022/03/02 05:08:07;;;;;;;;;;;8.30;45.70;;;;;;5077364;28;19908;-86
2022/03/02 05:10:34;;;;;;;;;;;8.20;45.70;;;;;;5072749;28;19913;-86
2022/03/02 05:13:02;;;;;;;;;;;8.20;45.80;;;;;;5077486;28;19965;-85
2022/03/02 05:15:27;;;;;;;;;;;8.20;45.80;;;;;;5059113;28;19909;-86
2022/03/02 05:17:52;;;;;;;;;;;8.20;45.90;;;;;;5059708;28;19927;-85
2022/03/02 05:20:19;;;;;;;;;;;8.20;46.00;;;;;;5059368;28;19930;-85
2022/03/02 05:22:45;;;;;;;;;;;8.10;46.00;;;;;;5077327;28;19917;-86
2022/03/02 05:25:13;;;;;;;;;;;8.10;46.20;;;;;;5060436;28;20276;-85
2022/03/02 05:27:39;;;;;;;;;;;8.10;46.20;;;;;;5059272;28;19912;-85
2022/03/02 05:30:05;;;;;;;;;;;8.10;46.20;;;;;;5059028;28;19913;-84
2022/03/02 05:32:31;;;;;;;;;;;8.00;46.30;;;;;;5059106;28;19912;-86
2022/03/02 05:34:56;;;;;;;;;;;8.00;46.30;;;;;;5058688;28;20003;-86
2022/03/02 05:37:22;;;;;;;;;;;8.00;46.30;;;;;;5077198;28;19913;-85
2022/03/02 05:39:47;;;;;;;;;;;8.00;46.40;;;;;;5058743;28;19940;-85
2022/03/02 05:42:13;;;;;;;;;;;8.00;46.40;;;;;;5077119;28;19928;-86
2022/03/02 05:44:38;;;;;;;;;;;8.00;46.50;;;;;;5053804;28;20242;-84
2022/03/02 05:47:04;;;;;;;;;;;8.00;46.50;;;;;;5068938;28;20368;-86
2022/03/02 05:49:30;;;;;;;;;;;8.10;46.50;;;;;;5063061;28;19923;-86
2022/03/02 05:51:55;;;;;;;;;;;8.10;46.50;;;;;;5042420;28;19917;-85
2022/03/02 05:54:21;;;;;;;;;;;8.10;46.50;;;;;;5076835;28;20345;-86
2022/03/02 05:56:46;;;;;;;;;;;8.10;46.50;;;;;;5077094;28;19916;-86
2022/03/02 05:59:13;;;;;;;;;;;8.10;46.50;;;;;;5061720;28;19917;-85
2022/03/02 06:01:38;;;;;;;;;;;8.20;46.50;;;;;;5058434;28;19917;-85
2022/03/02 06:04:07;;;;;;;;;;;8.20;46.60;;;;;;5065522;28;19973;-86
2022/03/02 06:06:33;;;;;;;;;;;8.20;46.60;;;;;;5053887;28;19966;-86
2022/03/02 06:09:00;;;;;;;;;;;8.20;46.70;;;;;;5062589;28;19991;-86
2022/03/02 06:11:26;;;;;;;;;;;8.20;46.70;;;;;;5047755;28;19913;-86
2022/03/02 06:13:52;;;;;;;;;;;8.20;46.70;;;;;;5049272;28;19996;-85
2022/03/02 06:16:17;;;;;;;;;;;8.20;46.60;;;;;;5047604;28;19913;-83
2022/03/02 06:18:43;;;;;;;;;;;8.20;46.70;;;;;;5064262;28;19924;-85
2022/03/02 06:21:13;;;;;;;;;;;8.20;46.70;;;;;;5066247;28;19913;-85
2022/03/02 06:23:39;;;;;;;;;;;8.20;46.80;;;;;;5061742;28;19924;-86
2022/03/02 06:26:04;;;;;;;;;;;8.20;46.80;;;;;;5049044;28;20256;-87
2022/03/02 06:28:30;;;;;;;;;;;8.20;46.90;;;;;;5062021;28;19920;-85
2022/03/02 06:30:55;;;;;;;;;;;8.20;46.80;;;;;;5067028;28;19917;-86
2022/03/02 06:33:21;;;;;;;;;;;8.20;46.80;;;;;;5064922;28;19940;-87
2022/03/02 06:35:50;;;;;;;;;;;8.20;46.90;;;;;;5050192;28;19991;-85
2022/03/02 06:38:16;;;;;;;;;;;8.20;46.90;;;;;;5050771;28;20253;-85
2022/03/02 06:40:55;;;;;;;;;;;8.10;47.00;;;;;;5053350;28;19935;-86
2022/03/02 06:43:22;;;;;;;;;;;8.10;47.00;;;;;;5045885;28;19912;-86
2022/03/02 06:45:54;;;;;;;;;;;8.00;47.10;;;;;;5045271;28;19972;-85
2022/03/02 06:48:25;;;;;;;;;;;7.90;47.10;;;;;;5042843;28;19909;-85
2022/03/02 06:50:52;;;;;;;;;;;7.90;47.20;;;;;;5057625;28;19917;-86
2022/03/02 06:53:20;;;;;;;;;;;7.90;47.30;;;;;;5068037;28;20322;-86
2022/03/02 06:55:46;;;;;;;;;;;7.90;47.20;;;;;;5060653;28;19921;-86
2022/03/02 06:58:12;;;;;;;;;;;7.90;47.30;;;;;;5058803;28;19908;-85
2022/03/02 07:00:38;;;;;;;;;;;7.90;47.30;;;;;;5068609;28;19924;-86
2022/03/02 07:03:05;;;;;;;;;;;7.90;47.40;;;;;;5045815;28;19913;-85
2022/03/02 07:05:32;;;;;;;;;;;8.00;47.50;;;;;;5066056;28;20364;-85
2022/03/02 07:07:59;;;;;;;;;;;8.00;47.60;;;;;;5049738;28;19909;-86
2022/03/02 07:10:24;;;;;;;;;;;8.10;47.70;;;;;;5045007;28;19916;-86
2022/03/02 07:12:49;;;;;;;;;;;8.30;48.00;;;;;;5063343;28;20268;-86
2022/03/02 07:15:15;;;;;;;;;;;8.40;48.10;;;;;;5057342;28;20526;-85
2022/03/02 07:17:41;;;;;;;;;;;8.70;48.30;;;;;;5066793;28;20417;-86
2022/03/02 07:20:07;;;;;;;;;;;9.00;48.50;;;;;;5046399;28;19931;-85
2022/03/02 07:22:34;;;;;;;;;;;9.30;48.50;;;;;;5071306;28;19923;-86
2022/03/02 07:25:09;;;;;;;;;;;9.70;49.20;;;;;;5041793;28;19915;-86
2022/03/02 07:27:37;;;;;;;;;;;10.20;49.20;;;;;;5044831;28;19955;-86
2022/03/02 07:30:03;;;;;;;;;;;10.70;48.90;;;;;;5063044;28;19928;-87
2022/03/02 07:32:31;;;;;;;;;;;11.40;49.70;;;;;;5053677;28;19915;-86
2022/03/02 07:34:58;;;;;;;;;;;12.20;50.00;;;;;;5051679;28;19924;-86
2022/03/02 07:37:24;;;;;;;;;;;13.10;49.30;;;;;;5069060;28;19952;-85
2022/03/02 07:39:49;;;;;;;;;;;14.00;47.00;;;;;;5028144;28;19962;-86
2022/03/02 07:42:15;;;;;;;;;;;14.80;46.30;;;;;;5070422;28;19999;-86
2022/03/02 07:44:44;;;;;;;;;;;15.60;45.00;;;;;;5062066;28;20062;-85
2022/03/02 07:47:09;;;;;;;;;;;16.20;43.80;;;;;;5066052;28;19909;-87
2022/03/02 07:49:35;;;;;;;;;;;16.80;42.00;;;;;;5062352;28;19909;-86
2022/03/02 07:52:02;;;;;;;;;;;17.20;40.50;;;;;;5046375;28;19908;-85
2022/03/02 07:54:29;;;;;;;;;;;17.50;38.20;;;;;;5047587;28;19935;-86
2022/03/02 07:56:55;;;;;;;;;;;17.60;35.00;;;;;;5061577;28;19920;-86
2022/03/02 07:59:20;;;;;;;;;;;17.40;34.60;;;;;;5064983;28;19912;-86
2022/03/02 08:01:46;;;;;;;;;;;17.20;33.20;;;;;;5045477;28;20368;-85
2022/03/02 08:04:12;;;;;;;;;;;16.80;32.80;;;;;;5039642;28;20348;-86
2022/03/02 08:06:39;;;;;;;;;;;16.40;33.00;;;;;;5066488;28;19917;-85
2022/03/02 08:09:05;;;;;;;;;;;16.10;33.50;;;;;;5066401;28;20394;-85
2022/03/02 08:11:35;;;;;;;;;;;15.80;33.00;;;;;;5046629;28;19913;-85
2022/03/02 08:14:00;;;;;;;;;;;15.80;33.30;;;;;;5064250;28;19955;-85
2022/03/02 08:16:29;;;;;;;;;;;15.70;32.80;;;;;;5062046;28;19952;-86
2022/03/02 08:18:56;;;;;;;;;;;15.60;33.20;;;;;;5060428;28;20387;-86
2022/03/02 08:21:22;;;;;;;;;;;15.50;33.20;;;;;;5061685;28;19916;-86
2022/03/02 08:23:50;;;;;;;;;;;15.50;33.20;;;;;;5062970;28;19969;-85
2022/03/02 08:26:19;;;;;;;;;;;15.70;33.90;;;;;;5059971;28;19917;-85
2022/03/02 08:28:45;;;;;;;;;;;16.10;34.10;;;;;;5059863;28;19912;-85
2022/03/02 08:31:11;;;;;;;;;;;16.50;34.00;;;;;;5042383;28;20593;-86
2022/03/02 08:33:37;;;;;;;;;;;17.00;33.60;;;;;;5037012;28;19921;-84
2022/03/02 08:36:03;;;;;;;;;;;17.60;33.00;;;;;;5047580;28;19927;-85
2022/03/02 08:38:28;;;;;;;;;;;18.00;31.80;;;;;;5046609;28;20132;-85
2022/03/02 08:40:55;;;;;;;;;;;18.40;30.80;;;;;;5066345;28;20758;-86
2022/03/02 08:43:20;;;;;;;;;;;18.70;29.70;;;;;;5052544;28;19917;-86
2022/03/02 08:45:46;;;;;;;;;;;19.10;29.80;;;;;;5058439;28;20287;-86
2022/03/02 08:48:16;;;;;;;;;;;19.50;29.10;;;;;;5046145;28;20272;-85
2022/03/02 08:50:42;;;;;;;;;;;19.80;28.80;;;;;;5049342;28;19920;-86
2022/03/02 08:53:08;;;;;;;;;;;20.30;28.00;;;;;;5060491;28;19908;-86
2022/03/02 08:55:34;;;;;;;;;;;20.50;27.20;;;;;;5045455;28;19924;-86
2022/03/02 08:58:00;;;;;;;;;;;20.80;27.60;;;;;;5066729;28;19916;-85
2022/03/02 09:00:25;;;;;;;;;;;21.20;26.20;;;;;;5046873;28;19920;-85
2022/03/02 09:02:55;;;;;;;;;;;21.30;25.90;;;;;;5047408;28;20304;-86
2022/03/02 09:05:22;;;;;;;;;;;21.50;25.70;;;;;;5057563;28;19916;-86
2022/03/02 09:07:47;;;;;;;;;;;21.80;25.40;;;;;;5045961;28;20388;-86
2022/03/02 09:10:13;;;;;;;;;;;22.10;25.40;;;;;;5039829;28;19971;-87
2022/03/02 09:12:42;;;;;;;;;;;22.40;25.00;;;;;;5048628;28;19935;-85
2022/03/02 09:15:08;;;;;;;;;;;22.60;24.40;;;;;;5046432;28;20003;-86
2022/03/02 09:17:33;;;;;;;;;;;22.80;24.20;;;;;;5047258;28;20344;-87
2022/03/02 09:19:59;;;;;;;;;;;22.90;23.80;;;;;;5048164;28;20016;-86
2022/03/02 09:22:26;;;;;;;;;;;23.10;23.40;;;;;;5063305;28;19916;-86
2022/03/02 09:24:51;;;;;;;;;;;23.10;23.50;;;;;;5063050;28;19925;-86
2022/03/02 09:27:18;;;;;;;;;;;23.20;23.00;;;;;;5044980;28;19916;-86
2022/03/02 09:29:46;;;;;;;;;;;23.30;22.90;;;;;;5048532;28;19920;-88
2022/03/02 09:32:13;;;;;;;;;;;23.50;22.80;;;;;;5061899;28;19960;-86
2022/03/02 09:34:40;;;;;;;;;;;23.70;22.50;;;;;;5062834;28;19924;-86
2022/03/02 09:37:09;;;;;;;;;;;23.70;22.50;;;;;;5047984;28;20491;-86
2022/03/02 09:39:34;;;;;;;;;;;23.80;21.80;;;;;;5072544;28;20399;-86
2022/03/02 09:42:15;;;;;;;;;;;23.80;20.20;;;;;;5056504;28;19916;-86
2022/03/02 09:44:42;;;;;;;;;;;23.40;20.10;;;;;;5056309;28;19966;-87
2022/03/02 09:47:09;;;;;;;;;;;23.40;21.30;;;;;;5074888;28;19916;-87
2022/03/02 09:49:36;;;;;;;;;;;23.50;21.70;;;;;;5070390;28;19909;-87
2022/03/02 09:52:07;;;;;;;;;;;23.60;21.10;;;;;;5055875;28;19916;-87
2022/03/02 09:54:36;;;;;;;;;;;23.70;20.30;;;;;;5073636;28;19990;-87
2022/03/02 09:57:03;;;;;;;;;;;23.70;19.80;;;;;;5052147;28;20368;-86
2022/03/02 09:59:32;;;;;;;;;;;23.50;20.00;;;;;;5073051;28;19909;-85
2022/03/02 10:02:00;;;;;;;;;;;23.50;20.40;;;;;;5066505;28;19913;-86
2022/03/02 10:04:28;;;;;;;;;;;23.40;19.90;;;;;;5074506;28;19913;-85
2022/03/02 10:09:45;;;;;;;;;;;23.30;20.50;;;;;;5071701;28;19924;-86
2022/03/02 10:12:13;;;;;;;;;;;23.40;20.50;;;;;;5073915;28;19916;-87
2022/03/02 10:14:38;;;;;;;;;;;23.50;20.00;;;;;;5052256;28;20032;-88
2022/03/02 10:17:04;;;;;;;;;;;23.50;20.00;;;;;;5072480;28;20554;-87
2022/03/02 10:19:31;;;;;;;;;;;23.50;19.80;;;;;;5073280;28;19912;-86
2022/03/02 10:22:15;;;;;;;;;;;23.40;19.60;;;;;;5051977;28;19919;-87
2022/03/02 10:24:45;;;;;;;;;;;23.30;18.70;;;;;;5070338;28;19921;-85
2022/03/02 10:27:17;;;;;;;;;;;23.00;18.70;;;;;;5073044;28;19920;-85
2022/03/02 10:29:52;;;;;;;;;;;22.70;18.60;;;;;;5054713;28;19928;-87
2022/03/02 10:32:21;;;;;;;;;;;22.30;18.30;;;;;;5062619;28;19912;-87
2022/03/02 10:34:49;;;;;;;;;;;22.00;18.60;;;;;;5072859;28;19999;-86
2022/03/02 10:37:28;;;;;;;;;;;21.90;19.20;;;;;;5073415;28;19913;-86
2022/03/02 10:40:05;;;;;;;;;;;21.80;19.30;;;;;;5054641;28;19932;-85
2022/03/02 10:42:33;;;;;;;;;;;21.80;19.80;;;;;;5044034;28;19920;-86
2022/03/02 10:45:03;;;;;;;;;;;21.70;19.60;;;;;;5024135;28;19928;-86
2022/03/02 10:47:29;;;;;;;;;;;21.60;19.40;;;;;;5072357;28;19919;-86
2022/03/02 10:49:56;;;;;;;;;;;21.70;19.50;;;;;;5071785;28;19940;-85
2022/03/02 10:52:22;;;;;;;;;;;21.90;19.10;;;;;;5051252;28;19920;-86
2022/03/02 10:54:49;;;;;;;;;;;22.20;19.00;;;;;;5062887;28;20352;-86
2022/03/02 10:57:15;;;;;;;;;;;22.30;18.80;;;;;;5072487;28;19966;-86
2022/03/02 10:59:43;;;;;;;;;;;22.60;18.90;;;;;;5053824;28;19951;-86
2022/03/02 11:02:09;;;;;;;;;;;22.80;18.50;;;;;;5072583;28;19912;-86
2022/03/02 11:04:36;;;;;;;;;;;22.90;17.90;;;;;;5054291;28;19986;-87
2022/03/02 11:07:04;;;;;;;;;;;22.90;18.00;;;;;;5053854;28;22326;-87
2022/03/02 11:09:32;;;;;;;;;;;23.00;18.50;;;;;;5043215;28;19999;-86
2022/03/02 11:11:58;;;;;;;;;;;23.10;17.70;;;;;;5069914;28;19913;-87
2022/03/02 11:14:24;;;;;;;;;;;23.10;18.20;;;;;;5071413;28;20413;-87
2022/03/02 11:16:50;;;;;;;;;;;23.30;18.40;;;;;;5069150;28;20372;-85
2022/03/02 11:19:16;;;;;;;;;;;23.40;18.00;;;;;;5071600;28;19913;-86
2022/03/02 11:21:43;;;;;;;;;;;23.50;18.30;;;;;;5052580;28;19919;-85
2022/03/02 11:24:09;;;;;;;;;;;23.60;18.10;;;;;;5072408;28;19924;-88
2022/03/02 11:26:36;;;;;;;;;;;23.70;18.00;;;;;;5040182;28;19931;-86
2022/03/02 11:29:22;;;;;;;;;;;23.80;18.60;;;;;;5071836;28;19920;-87
2022/03/02 11:31:50;;;;;;;;;;;23.90;18.20;;;;;;5071553;28;19928;-85
2022/03/02 11:34:17;;;;;;;;;;;24.00;17.90;;;;;;5048802;28;19959;-85
2022/03/02 11:36:45;;;;;;;;;;;24.10;18.00;;;;;;5045373;28;19925;-86
2022/03/02 11:39:11;;;;;;;;;;;24.20;17.90;;;;;;5061343;28;19931;-86
2022/03/02 11:41:38;;;;;;;;;;;24.20;17.70;;;;;;5043997;28;19948;-86
2022/03/02 11:44:06;;;;;;;;;;;24.30;17.90;;;;;;5069692;28;20328;-86
2022/03/02 11:46:31;;;;;;;;;;;24.30;17.10;;;;;;5066672;28;19912;-87
2022/03/02 11:48:57;;;;;;;;;;;24.20;17.20;;;;;;5065981;28;19919;-87
2022/03/02 11:51:25;;;;;;;;;;;24.10;17.40;;;;;;5066408;28;19920;-86
2022/03/02 11:53:52;;;;;;;;;;;24.00;16.90;;;;;;5070418;28;19917;-86
2022/03/02 11:56:19;;;;;;;;;;;24.00;17.30;;;;;;5047093;28;19959;-86
2022/03/02 11:59:01;;;;;;;;;;;24.00;17.30;;;;;;5063354;28;19924;-86
2022/03/02 12:01:39;;;;;;;;;;;23.90;17.30;;;;;;5064319;28;20011;-87
2022/03/02 12:04:06;;;;;;;;;;;23.80;16.30;;;;;;5045029;28;19923;-86
2022/03/02 12:06:37;;;;;;;;;;;23.80;17.40;;;;;;5037403;28;20023;-86
2022/03/02 12:09:03;;;;;;;;;;;23.80;17.10;;;;;;5047405;28;20368;-86
2022/03/02 12:11:34;;;;;;;;;;;23.80;17.20;;;;;;5043212;28;20009;-86
2022/03/02 12:14:00;;;;;;;;;;;23.90;17.40;;;;;;5048880;28;19917;-87
2022/03/02 12:16:40;;;;;;;;;;;23.90;17.40;;;;;;5068632;28;20689;-87
2022/03/02 12:19:09;;;;;;;;;;;24.00;17.80;;;;;;5064016;28;19947;-87
2022/03/02 12:21:34;;;;;;;;;;;24.10;17.50;;;;;;5067642;28;19915;-86
2022/03/02 12:24:01;;;;;;;;;;;24.10;17.80;;;;;;5044857;28;20004;-85
2022/03/02 12:26:27;;;;;;;;;;;24.10;17.60;;;;;;5064652;28;20368;-87
2022/03/02 12:28:55;;;;;;;;;;;24.20;18.50;;;;;;5062933;28;19966;-86
2022/03/02 12:31:31;;;;;;;;;;;24.30;18.20;;;;;;5040539;28;19913;-86
2022/03/02 12:34:00;;;;;;;;;;;24.20;17.10;;;;;;5040070;28;19929;-87
2022/03/02 12:36:26;;;;;;;;;;;24.10;17.20;;;;;;5063480;28;19909;-87
2022/03/02 12:38:52;;;;;;;;;;;24.00;17.40;;;;;;5045621;28;19925;-86
2022/03/02 12:41:17;;;;;;;;;;;23.90;17.40;;;;;;5047571;28;20367;-86
2022/03/02 12:43:43;;;;;;;;;;;23.80;17.30;;;;;;5061397;28;20414;-86
2022/03/02 12:46:09;;;;;;;;;;;23.60;17.20;;;;;;5041040;28;19995;-87
2022/03/02 12:48:35;;;;;;;;;;;23.50;17.40;;;;;;5065519;28;19916;-87
2022/03/02 12:51:01;;;;;;;;;;;23.50;17.60;;;;;;5038615;28;20368;-87
2022/03/02 12:53:27;;;;;;;;;;;23.50;17.60;;;;;;5042671;28;19917;-87
2022/03/02 12:55:52;;;;;;;;;;;23.30;16.90;;;;;;5063837;28;19917;-87
2022/03/02 12:58:18;;;;;;;;;;;23.30;17.40;;;;;;5041751;28;19917;-87
2022/03/02 13:00:44;;;;;;;;;;;23.20;17.70;;;;;;5041332;28;19920;-88
2022/03/02 13:03:10;;;;;;;;;;;23.10;17.30;;;;;;5063241;28;19916;-87
2022/03/02 13:05:37;;;;;;;;;;;23.10;17.90;;;;;;5066132;28;20364;-87
2022/03/02 13:08:15;;;;;;;;;;;23.00;18.30;;;;;;5060538;28;19921;-86
2022/03/02 13:10:44;;;;;;;;;;;22.80;18.30;;;;;;5059585;28;19912;-86
2022/03/02 13:13:10;;;;;;;;;;;22.40;17.40;;;;;;5057601;28;20398;-87
2022/03/02 13:15:35;;;;;;;;;;;21.70;17.50;;;;;;5062449;28;19912;-86
2022/03/02 13:18:07;;;;;;;;;;;21.00;17.90;;;;;;5042381;28;19958;-85
2022/03/02 13:20:37;;;;;;;;;;;20.30;17.90;;;;;;5044880;28;20478;-86
2022/03/02 13:23:13;;;;;;;;;;;19.70;18.30;;;;;;5048775;28;19923;-86
2022/03/02 13:25:39;;;;;;;;;;;19.20;18.10;;;;;;5048453;28;19912;-86
2022/03/02 13:28:06;;;;;;;;;;;18.70;17.70;;;;;;5064693;28;19940;-86
2022/03/02 13:30:31;;;;;;;;;;;18.30;18.00;;;;;;5047588;28;20532;-87
2022/03/02 13:33:01;;;;;;;;;;;18.00;18.40;;;;;;5069771;28;19948;-86
2022/03/02 13:35:35;;;;;;;;;;;17.70;19.10;;;;;;5046690;28;19919;-86
2022/03/02 13:38:00;;;;;;;;;;;17.50;19.30;;;;;;5051566;28;19917;-86
2022/03/02 13:40:34;;;;;;;;;;;17.30;19.60;;;;;;5066627;28;19912;-86
2022/03/02 13:43:06;;;;;;;;;;;17.20;19.90;;;;;;5048932;28;19916;-87
2022/03/02 13:45:32;;;;;;;;;;;16.90;20.40;;;;;;5062258;28;19916;-86
2022/03/02 13:48:13;;;;;;;;;;;16.80;20.70;;;;;;5065975;28;20426;-86
2022/03/02 13:50:57;;;;;;;;;;;16.70;20.80;;;;;;5067515;28;20311;-85
2022/03/02 13:53:36;;;;;;;;;;;16.60;20.90;;;;;;5066076;28;20558;-85
2022/03/02 13:56:03;;;;;;;;;;;16.50;21.40;;;;;;5063387;28;19999;-85
2022/03/02 13:58:29;;;;;;;;;;;16.40;21.70;;;;;;5065131;28;19913;-85
2022/03/02 14:00:55;;;;;;;;;;;16.30;21.70;;;;;;5068281;28;19916;-86
2022/03/02 14:03:28;;;;;;;;;;;16.30;21.90;;;;;;5065422;28;19928;-86
2022/03/02 14:05:53;;;;;;;;;;;16.20;22.20;;;;;;5063405;28;19920;-86
2022/03/02 14:08:19;;;;;;;;;;;16.20;22.50;;;;;;5047630;28;20383;-86
2022/03/02 14:10:45;;;;;;;;;;;16.10;22.70;;;;;;5065656;28;19970;-87
2022/03/02 14:13:10;;;;;;;;;;;16.10;22.60;;;;;;5048085;28;19912;-85
2022/03/02 14:15:36;;;;;;;;;;;16.10;22.90;;;;;;5066714;28;19923;-86
2022/03/02 14:18:06;;;;;;;;;;;16.10;23.10;;;;;;5062345;28;20003;-86
2022/03/02 14:20:33;;;;;;;;;;;16.10;23.20;;;;;;5047285;28;19917;-85
2022/03/02 14:22:59;;;;;;;;;;;16.00;23.00;;;;;;5050269;28;19931;-85
2022/03/02 14:25:25;;;;;;;;;;;15.90;23.10;;;;;;5070961;28;20003;-85